Time;durP1;ratioP1;P1;durP2;ratioP2;P2;SDS_P1;SDS_P2;PMS_P1;PMS_P2;Temp;Humidity;BMP_temperature;BMP_pressure;BME280_temperature;BME280_humidity;BME280_pressure;Samples;Min_cycle;Max_cycle;Signal;HPM_P1;HPM_P2
2021/04/24 00:01:29;;;;;;;8.13;6.38;;;5.00;74.20;;;;;;6201133;28;20169;-78
2021/04/24 00:04:31;;;;;;;10.43;6.30;;;4.90;74.30;;;;;;6201711;28;20084;-77
2021/04/24 00:07:32;;;;;;;9.20;7.82;;;4.90;74.30;;;;;;6201423;28;20136;-77
2021/04/24 00:10:37;;;;;;;11.57;5.88;;;4.90;74.40;;;;;;6201737;28;20531;-77
2021/04/24 00:13:39;;;;;;;16.73;8.80;;;4.90;74.40;;;;;;6201088;28;20043;-77
2021/04/24 00:16:40;;;;;;;8.50;7.20;;;4.90;74.60;;;;;;6201078;28;20050;-78
2021/04/24 00:19:42;;;;;;;9.38;7.00;;;4.90;74.80;;;;;;6200643;28;20619;-77
2021/04/24 00:22:44;;;;;;;14.23;7.28;;;4.90;75.10;;;;;;6201254;28;20078;-77
2021/04/24 00:25:45;;;;;;;10.02;6.25;;;4.80;75.10;;;;;;6200821;28;20070;-77
2021/04/24 00:28:49;;;;;;;8.43;7.25;;;4.80;75.30;;;;;;6201091;28;20129;-77
2021/04/24 00:31:50;;;;;;;9.07;6.75;;;4.90;75.20;;;;;;6200978;28;20038;-77
2021/04/24 00:34:52;;;;;;;12.13;6.07;;;5.00;75.40;;;;;;6201212;28;20158;-77
2021/04/24 00:37:53;;;;;;;10.13;7.22;;;5.00;75.10;;;;;;6198639;28;20046;-77
2021/04/24 00:40:55;;;;;;;11.90;7.60;;;5.10;75.00;;;;;;6200459;28;20125;-78
2021/04/24 00:43:57;;;;;;;10.05;7.05;;;5.20;74.90;;;;;;6203053;28;20520;-76
2021/04/24 00:46:58;;;;;;;13.57;7.25;;;5.30;74.80;;;;;;6203949;28;20085;-77
2021/04/24 00:50:00;;;;;;;7.13;5.55;;;5.40;74.20;;;;;;6200077;28;20081;-77
2021/04/24 00:53:02;;;;;;;9.98;6.45;;;5.50;73.90;;;;;;6200434;28;20124;-77
2021/04/24 00:56:04;;;;;;;9.05;6.20;;;5.60;73.70;;;;;;6200521;28;20129;-77
2021/04/24 00:59:07;;;;;;;6.60;5.18;;;5.60;73.20;;;;;;6200266;28;20188;-78
2021/04/24 01:02:09;;;;;;;9.20;5.20;;;5.70;72.90;;;;;;6200279;28;20510;-77
2021/04/24 01:05:15;;;;;;;10.63;5.38;;;5.80;72.70;;;;;;6199895;28;20051;-77
2021/04/24 01:08:16;;;;;;;6.57;5.60;;;5.80;72.40;;;;;;6199778;28;20495;-77
2021/04/24 01:11:17;;;;;;;9.10;5.60;;;5.80;72.70;;;;;;6199958;28;20061;-77
2021/04/24 01:14:20;;;;;;;11.63;6.25;;;5.90;72.30;;;;;;6199877;28;20141;-77
2021/04/24 01:17:21;;;;;;;9.95;4.93;;;5.90;72.10;;;;;;6199867;28;20077;-77
2021/04/24 01:20:23;;;;;;;6.93;5.32;;;5.90;72.10;;;;;;6199312;28;20073;-76
2021/04/24 01:23:25;;;;;;;13.00;5.43;;;5.90;72.00;;;;;;6199911;28;20078;-77
2021/04/24 01:26:27;;;;;;;8.82;5.20;;;5.90;71.80;;;;;;6199628;28;20136;-78
2021/04/24 01:29:29;;;;;;;6.68;5.20;;;5.80;71.80;;;;;;6199057;28;20137;-77
2021/04/24 01:32:30;;;;;;;10.75;6.20;;;5.80;72.20;;;;;;6199272;28;20054;-78
2021/04/24 01:35:32;;;;;;;8.27;5.22;;;5.80;72.30;;;;;;6199460;28;20654;-77
2021/04/24 01:38:34;;;;;;;8.07;5.18;;;5.80;72.10;;;;;;6199690;28;20129;-77
2021/04/24 01:41:36;;;;;;;11.77;8.10;;;5.80;72.80;;;;;;6199343;28;20046;-77
2021/04/24 01:44:37;;;;;;;15.52;7.82;;;5.80;72.20;;;;;;6199346;28;20046;-77
2021/04/24 01:47:41;;;;;;;9.80;5.53;;;5.80;72.20;;;;;;6198956;28;20058;-77
2021/04/24 01:50:45;;;;;;;8.02;5.28;;;5.70;72.60;;;;;;6199052;28;20046;-77
2021/04/24 01:53:48;;;;;;;10.55;6.10;;;5.80;72.00;;;;;;6198762;28;20050;-76
2021/04/24 01:56:52;;;;;;;10.85;7.03;;;5.70;72.00;;;;;;6198744;28;20054;-77
2021/04/24 01:59:53;;;;;;;10.18;5.18;;;5.70;71.90;;;;;;6198391;28;20456;-77
2021/04/24 02:02:56;;;;;;;8.82;5.07;;;5.80;71.80;;;;;;6199297;28;20136;-77
2021/04/24 02:05:58;;;;;;;10.93;5.47;;;5.70;71.60;;;;;;6198619;28;20140;-78
2021/04/24 02:09:00;;;;;;;8.23;4.93;;;5.80;71.10;;;;;;6198483;28;20125;-77
2021/04/24 02:12:05;;;;;;;8.60;5.60;;;5.80;70.90;;;;;;6198204;28;20650;-77
2021/04/24 02:15:08;;;;;;;8.45;6.32;;;5.80;70.60;;;;;;6198972;28;20493;-77
2021/04/24 02:18:10;;;;;;;6.47;4.45;;;5.80;70.30;;;;;;6198561;28;20051;-75
2021/04/24 02:21:11;;;;;;;7.30;4.88;;;5.80;70.00;;;;;;6197970;28;20211;-76
2021/04/24 02:24:13;;;;;;;8.55;4.60;;;5.80;69.90;;;;;;6198221;28;20089;-78
2021/04/24 02:27:15;;;;;;;6.43;4.75;;;5.80;69.80;;;;;;6198824;28;20489;-76
2021/04/24 02:30:19;;;;;;;9.75;5.07;;;5.80;70.10;;;;;;6197879;28;20544;-77
2021/04/24 02:33:20;;;;;;;6.80;4.82;;;5.70;70.60;;;;;;6197961;28;20054;-77
2021/04/24 02:36:22;;;;;;;7.97;5.57;;;5.70;70.50;;;;;;6238452;23;20049;-78
2021/04/24 02:39:32;;;;;;;10.30;5.03;;;5.60;70.60;;;;;;6214218;28;20137;-77
2021/04/24 02:42:33;;;;;;;7.55;6.07;;;5.60;71.00;;;;;;6222507;28;20048;-77
2021/04/24 02:45:35;;;;;;;8.95;5.65;;;5.50;71.10;;;;;;6233057;28;20076;-77
2021/04/24 02:48:36;;;;;;;16.27;7.47;;;5.40;71.10;;;;;;6246212;28;20068;-77
2021/04/24 02:51:37;;;;;;;6.65;4.35;;;5.40;71.20;;;;;;6246445;28;20080;-77
2021/04/24 02:54:40;;;;;;;8.05;5.03;;;5.40;71.20;;;;;;6247290;28;20113;-77
2021/04/24 02:57:42;;;;;;;9.48;5.70;;;5.40;71.40;;;;;;6245905;28;20416;-77
2021/04/24 03:00:43;;;;;;;6.00;5.40;;;5.40;71.50;;;;;;6246156;28;20080;-77
2021/04/24 03:03:44;;;;;;;11.70;5.60;;;5.30;71.60;;;;;;6246187;28;20049;-77
2021/04/24 03:06:46;;;;;;;11.07;5.78;;;5.30;72.20;;;;;;6246487;28;20123;-77
2021/04/24 03:09:49;;;;;;;6.43;5.82;;;5.20;72.30;;;;;;6245863;28;20462;-77
2021/04/24 03:12:50;;;;;;;10.95;5.63;;;5.20;72.80;;;;;;6247723;28;20479;-77
2021/04/24 03:15:51;;;;;;;20.40;9.00;;;5.10;72.70;;;;;;6248467;28;20073;-77
2021/04/24 03:18:53;;;;;;;8.55;5.72;;;5.10;73.00;;;;;;6247831;28;20127;-77
2021/04/24 03:21:55;;;;;;;8.20;4.45;;;5.10;72.80;;;;;;6248458;28;20037;-78
2021/04/24 03:24:57;;;;;;;6.15;4.80;;;5.20;72.20;;;;;;6247946;28;20190;-78
2021/04/24 03:27:58;;;;;;;6.50;3.60;;;5.20;71.70;;;;;;6249390;28;20042;-77
2021/04/24 03:30:59;;;;;;;7.35;3.30;;;5.20;71.30;;;;;;6252241;28;20125;-77
2021/04/24 03:34:01;;;;;;;8.25;4.25;;;5.20;70.90;;;;;;6252094;28;20056;-77
2021/04/24 03:37:02;;;;;;;5.85;4.15;;;5.30;70.60;;;;;;6252015;28;20470;-78
2021/04/24 03:40:06;;;;;;;6.53;4.80;;;5.30;70.40;;;;;;6251641;28;20176;-77
2021/04/24 03:43:07;;;;;;;9.95;4.03;;;5.30;70.40;;;;;;6252702;28;20045;-77
2021/04/24 03:46:09;;;;;;;9.30;3.65;;;5.30;70.40;;;;;;6251472;28;20630;-77
2021/04/24 03:49:10;;;;;;;4.63;4.03;;;5.30;70.30;;;;;;6251612;28;20516;-78
2021/04/24 03:52:12;;;;;;;7.40;6.00;;;5.20;70.20;;;;;;6251657;28;20128;-77
2021/04/24 03:55:15;;;;;;;7.43;4.75;;;5.20;70.10;;;;;;6252037;28;20080;-77
2021/04/24 03:58:16;;;;;;;9.32;4.57;;;5.30;70.70;;;;;;6251285;28;20139;-78
2021/04/24 04:01:18;;;;;;;5.97;4.00;;;5.20;69.90;;;;;;6251375;28;20132;-77
2021/04/24 04:04:19;;;;;;;11.43;6.85;;;5.30;69.90;;;;;;6251038;28;20091;-78
2021/04/24 04:07:20;;;;;;;12.25;9.15;;;5.20;70.00;;;;;;6252191;28;20077;-78
2021/04/24 04:10:23;;;;;;;15.80;9.25;;;5.20;70.10;;;;;;6251415;28;20146;-78
2021/04/24 04:13:25;;;;;;;10.90;7.07;;;5.20;70.30;;;;;;6250833;28;20422;-77
2021/04/24 04:16:26;;;;;;;10.52;6.60;;;5.20;70.50;;;;;;6251074;28;20058;-78
2021/04/24 04:19:27;;;;;;;9.23;6.95;;;5.10;70.60;;;;;;6250734;28;20140;-78
2021/04/24 04:22:29;;;;;;;13.00;5.57;;;5.10;70.80;;;;;;6251179;28;20091;-78
2021/04/24 04:25:31;;;;;;;11.00;7.72;;;5.10;71.10;;;;;;6250859;28;20073;-78
2021/04/24 04:28:32;;;;;;;10.18;6.30;;;5.10;71.60;;;;;;6250546;28;20045;-78
2021/04/24 04:31:34;;;;;;;12.65;6.25;;;5.10;71.90;;;;;;6250648;28;20045;-79
2021/04/24 04:34:35;;;;;;;12.38;6.78;;;5.10;72.00;;;;;;6250093;28;20148;-77
2021/04/24 04:37:36;;;;;;;11.82;8.25;;;5.10;72.20;;;;;;6248681;28;20128;-76
2021/04/24 04:40:39;;;;;;;9.45;7.05;;;5.20;72.50;;;;;;6247930;28;20056;-77
2021/04/24 04:43:40;;;;;;;13.63;8.90;;;5.20;72.50;;;;;;6248857;28;20136;-76
2021/04/24 04:46:41;;;;;;;12.77;7.05;;;5.20;72.50;;;;;;6248778;28;20164;-77
2021/04/24 04:49:43;;;;;;;12.77;7.03;;;5.20;72.60;;;;;;6248256;28;20072;-76
2021/04/24 04:52:44;;;;;;;16.85;13.27;;;5.30;72.80;;;;;;6248093;28;20521;-77
2021/04/24 04:55:47;;;;;;;10.57;8.20;;;5.30;72.80;;;;;;6248071;28;20077;-77
2021/04/24 04:58:48;;;;;;;10.27;8.57;;;5.40;72.90;;;;;;6248417;28;20156;-77
2021/04/24 05:01:50;;;;;;;12.45;8.13;;;5.50;72.70;;;;;;6248063;28;20124;-77
2021/04/24 05:04:51;;;;;;;13.50;8.27;;;5.60;72.50;;;;;;6247936;28;20049;-77
2021/04/24 05:07:53;;;;;;;10.52;9.40;;;5.70;72.30;;;;;;6248295;28;20045;-77
2021/04/24 05:10:55;;;;;;;13.30;9.35;;;5.80;72.20;;;;;;6248348;28;20132;-77
2021/04/24 05:13:56;;;;;;;9.13;7.25;;;5.80;72.30;;;;;;6247512;28;20057;-78
2021/04/24 05:16:57;;;;;;;10.23;5.95;;;5.90;72.30;;;;;;6248042;28;20462;-77
2021/04/24 05:19:59;;;;;;;10.55;8.02;;;6.00;72.30;;;;;;6247484;28;20475;-77
2021/04/24 05:23:00;;;;;;;18.60;8.50;;;6.20;72.00;;;;;;6248146;28;20080;-78
2021/04/24 05:26:02;;;;;;;13.90;8.73;;;6.40;71.50;;;;;;6247848;28;20063;-77
2021/04/24 05:29:04;;;;;;;13.82;7.03;;;6.50;70.90;;;;;;6247685;28;20106;-77
2021/04/24 05:32:06;;;;;;;14.23;7.90;;;6.80;70.60;;;;;;6248133;28;20080;-77
2021/04/24 05:35:09;;;;;;;11.77;7.93;;;7.00;69.80;;;;;;6248489;28;20059;-77
2021/04/24 05:38:10;;;;;;;17.35;9.02;;;7.30;69.40;;;;;;6248542;28;20084;-78
2021/04/24 05:41:14;;;;;;;11.10;7.85;;;7.50;68.20;;;;;;6247427;28;20505;-77
2021/04/24 05:44:16;;;;;;;12.00;8.88;;;7.70;68.10;;;;;;6247475;28;20041;-77
2021/04/24 05:47:17;;;;;;;10.90;7.30;;;7.80;67.40;;;;;;6248443;28;20057;-77
2021/04/24 05:50:20;;;;;;;20.52;7.68;;;7.90;67.00;;;;;;6246079;28;20123;-77
2021/04/24 05:53:21;;;;;;;11.30;7.40;;;8.10;66.60;;;;;;6247055;28;20487;-77
2021/04/24 05:56:24;;;;;;;16.98;9.00;;;8.30;66.00;;;;;;6247288;28;20049;-77
2021/04/24 05:59:25;;;;;;;14.20;8.88;;;8.50;65.50;;;;;;6247408;28;20095;-77
2021/04/24 06:02:27;;;;;;;10.90;7.80;;;8.60;65.20;;;;;;6247093;28;20213;-77
2021/04/24 06:05:28;;;;;;;13.25;6.88;;;8.70;64.90;;;;;;6237916;28;20396;-77
2021/04/24 06:08:29;;;;;;;17.15;8.80;;;9.00;64.40;;;;;;6246406;28;20048;-77
2021/04/24 06:11:33;;;;;;;15.00;8.88;;;9.10;63.20;;;;;;6223105;28;20054;-77
2021/04/24 06:14:35;;;;;;;15.07;8.25;;;9.20;63.40;;;;;;6222879;28;20519;-77
2021/04/24 06:17:36;;;;;;;14.40;7.68;;;9.40;62.80;;;;;;6222459;28;20046;-77
2021/04/24 06:20:39;;;;;;;14.98;8.80;;;9.60;61.80;;;;;;6221975;28;20049;-77
2021/04/24 06:23:41;;;;;;;21.52;9.15;;;9.80;61.20;;;;;;6221892;28;20423;-78
2021/04/24 06:26:43;;;;;;;11.50;6.93;;;10.10;60.10;;;;;;6223765;28;20096;-78
2021/04/24 06:29:44;;;;;;;14.15;8.18;;;10.30;59.40;;;;;;6222397;28;20107;-77
2021/04/24 06:32:47;;;;;;;15.02;6.72;;;10.40;58.40;;;;;;6221755;28;20510;-77
2021/04/24 06:35:49;;;;;;;7.60;5.53;;;10.50;58.50;;;;;;6222290;28;20129;-77
2021/04/24 06:38:50;;;;;;;10.15;6.18;;;10.80;57.10;;;;;;6222568;28;20140;-77
2021/04/24 06:41:52;;;;;;;13.45;5.93;;;10.90;56.80;;;;;;6222246;28;20281;-77
2021/04/24 06:44:54;;;;;;;9.32;5.45;;;11.20;55.90;;;;;;6221894;28;20436;-77
2021/04/24 06:47:55;;;;;;;9.40;6.90;;;11.30;54.80;;;;;;6222279;28;20066;-77
2021/04/24 06:50:58;;;;;;;11.73;6.38;;;11.20;55.40;;;;;;6222605;28;20092;-77
2021/04/24 06:53:59;;;;;;;8.77;5.93;;;11.50;54.80;;;;;;6222090;28;20137;-77
2021/04/24 06:57:02;;;;;;;9.18;4.72;;;11.70;53.50;;;;;;6222568;28;20128;-77
2021/04/24 07:00:06;;;;;;;6.85;5.30;;;11.70;53.00;;;;;;6221530;28;20567;-77
2021/04/24 07:03:07;;;;;;;8.93;5.43;;;11.90;53.10;;;;;;6225943;28;20046;-77
2021/04/24 07:06:09;;;;;;;6.97;6.28;;;12.20;52.60;;;;;;6227325;28;20134;-78
2021/04/24 07:09:10;;;;;;;6.13;4.55;;;12.50;51.60;;;;;;6226808;28;20454;-77
2021/04/24 07:12:12;;;;;;;8.20;4.97;;;12.70;50.80;;;;;;6227146;28;20410;-77
2021/04/24 07:15:15;;;;;;;13.55;6.18;;;13.00;50.10;;;;;;6228237;28;20085;-79
2021/04/24 07:18:16;;;;;;;11.18;6.72;;;13.30;49.50;;;;;;6227662;28;20102;-78
2021/04/24 07:21:18;;;;;;;7.25;5.25;;;13.60;48.70;;;;;;6227757;28;20163;-79
2021/04/24 07:24:19;;;;;;;11.75;5.80;;;13.90;47.30;;;;;;6227715;28;20069;-79
2021/04/24 07:27:21;;;;;;;8.93;5.43;;;13.90;46.90;;;;;;6228073;28;20137;-78
2021/04/24 07:30:23;;;;;;;10.80;5.32;;;13.90;48.00;;;;;;6227477;28;20123;-78
2021/04/24 07:33:25;;;;;;;6.82;5.00;;;14.00;46.00;;;;;;6227853;28;20069;-79
2021/04/24 07:36:26;;;;;;;7.88;5.32;;;13.80;46.30;;;;;;6228215;28;20121;-78
2021/04/24 07:39:28;;;;;;;9.63;6.70;;;13.80;47.20;;;;;;6229129;28;20080;-80
2021/04/24 07:42:30;;;;;;;5.55;4.55;;;14.20;45.80;;;;;;6229784;28;20104;-80
2021/04/24 07:45:31;;;;;;;8.30;5.10;;;14.60;45.20;;;;;;6230522;28;20081;-81
2021/04/24 07:48:32;;;;;;;10.75;5.75;;;15.00;44.60;;;;;;6228557;28;20145;-81
2021/04/24 07:51:34;;;;;;;8.77;5.72;;;14.90;44.40;;;;;;6228597;28;20115;-81
2021/04/24 07:54:41;;;;;;;16.02;7.38;;;15.00;44.50;;;;;;6229968;28;20073;-80
2021/04/24 07:57:43;;;;;;;13.57;9.50;;;15.10;44.40;;;;;;6226957;28;20050;-80
2021/04/24 08:00:45;;;;;;;11.23;5.65;;;15.20;43.60;;;;;;6227747;28;20125;-79
2021/04/24 08:03:47;;;;;;;9.93;4.88;;;15.30;43.00;;;;;;6228653;28;20065;-79
2021/04/24 08:06:48;;;;;;;10.73;5.45;;;15.30;43.40;;;;;;6229172;28;20100;-79
2021/04/24 08:09:49;;;;;;;9.70;4.72;;;15.40;42.80;;;;;;6228695;28;20132;-79
2021/04/24 08:12:51;;;;;;;9.77;5.25;;;15.60;43.10;;;;;;6227536;28;20525;-78
2021/04/24 08:15:53;;;;;;;9.90;5.18;;;15.90;42.30;;;;;;6227464;28;20121;-78
2021/04/24 08:18:54;;;;;;;17.50;6.53;;;16.00;41.50;;;;;;6227286;28;20050;-80
2021/04/24 08:21:56;;;;;;;11.57;6.78;;;15.60;42.10;;;;;;6229403;28;20049;-79
2021/04/24 08:24:57;;;;;;;9.05;6.07;;;15.80;42.20;;;;;;6228677;28;20133;-79
2021/04/24 08:28:00;;;;;;;9.60;4.93;;;16.00;41.70;;;;;;6227891;28;20137;-79
2021/04/24 08:31:01;;;;;;;9.70;5.68;;;16.20;42.10;;;;;;6227791;28;20136;-79
2021/04/24 08:34:03;;;;;;;11.00;6.53;;;16.50;41.40;;;;;;6226056;28;20306;-78
2021/04/24 08:37:05;;;;;;;9.77;4.80;;;16.50;40.10;;;;;;6225872;28;20133;-78
2021/04/24 08:40:08;;;;;;;10.23;4.90;;;16.40;40.70;;;;;;6226439;28;20066;-79
2021/04/24 08:43:13;;;;;;;8.25;5.28;;;16.50;40.60;;;;;;6257972;23;20065;-77
2021/04/24 08:46:16;;;;;;;9.27;4.90;;;16.80;40.90;;;;;;6244169;28;20073;-81
2021/04/24 08:49:18;;;;;;;9.43;5.30;;;17.20;39.70;;;;;;6242804;28;20124;-78
2021/04/24 08:52:21;;;;;;;6.38;5.55;;;17.60;39.60;;;;;;6248139;28;20059;-77
2021/04/24 08:55:24;;;;;;;9.52;5.57;;;17.90;38.80;;;;;;6263485;28;20091;-78
2021/04/24 08:58:26;;;;;;;7.28;5.68;;;18.00;37.90;;;;;;6267341;28;20050;-78
2021/04/24 09:01:28;;;;;;;8.52;5.53;;;18.00;38.60;;;;;;6268539;28;20049;-76
2021/04/24 09:04:29;;;;;;;9.05;5.20;;;18.00;37.60;;;;;;6266319;28;20068;-79
2021/04/24 09:07:31;;;;;;;23.40;6.72;;;17.80;38.00;;;;;;6268553;28;20045;-77
2021/04/24 09:10:40;;;;;;;9.02;6.07;;;18.10;37.90;;;;;;6268601;28;20483;-78
2021/04/24 09:13:42;;;;;;;14.98;7.53;;;18.30;37.20;;;;;;6257171;28;20102;-76
2021/04/24 09:16:51;;;;;;;11.48;5.32;;;18.60;36.00;;;;;;6243182;28;20061;-80
2021/04/24 09:19:52;;;;;;;16.95;5.88;;;18.60;36.80;;;;;;6242886;28;20396;-77
2021/04/24 09:22:56;;;;;;;9.32;6.90;;;18.60;36.30;;;;;;6238222;28;20042;-79
2021/04/24 09:26:00;;;;;;;7.82;5.30;;;18.50;36.40;;;;;;6239233;28;20062;-77
2021/04/24 09:29:04;;;;;;;10.93;6.15;;;18.70;37.00;;;;;;6237581;28;20601;-77
2021/04/24 09:32:16;;;;;;;9.77;4.88;;;18.90;36.30;;;;;;6239410;28;20053;-77
2021/04/24 09:35:20;;;;;;;10.95;6.20;;;19.10;35.60;;;;;;6240930;28;20076;-80
2021/04/24 09:38:27;;;;;;;9.23;5.78;;;18.70;35.70;;;;;;6238597;28;20057;-78
2021/04/24 09:41:33;;;;;;;21.10;6.25;;;18.50;36.20;;;;;;6236550;28;20053;-77
2021/04/24 09:44:35;;;;;;;15.70;6.25;;;18.60;35.80;;;;;;6228519;28;20137;-78
2021/04/24 09:47:41;;;;;;;8.02;5.53;;;18.80;36.40;;;;;;6230289;28;20077;-77
2021/04/24 09:50:43;;;;;;;10.23;5.55;;;18.90;36.80;;;;;;6231832;28;20114;-78
2021/04/24 09:53:55;;;;;;;8.23;6.15;;;19.30;37.30;;;;;;6224280;28;20038;-77
2021/04/24 09:56:59;;;;;;;12.90;7.20;;;19.50;35.20;;;;;;6233374;28;20051;-77
2021/04/24 10:00:04;;;;;;;14.88;5.93;;;19.30;35.00;;;;;;6249866;28;20064;-77
2021/04/24 10:03:05;;;;;;;11.45;7.15;;;18.70;34.40;;;;;;6256997;28;20408;-79
2021/04/24 10:06:24;;;;;;;10.65;5.72;;;18.60;35.60;;;;;;6254920;28;20076;-78
2021/04/24 10:09:28;;;;;;;8.98;5.70;;;18.60;35.80;;;;;;6249314;28;20056;-76
2021/04/24 10:12:29;;;;;;;9.77;6.22;;;18.80;36.30;;;;;;6247276;28;20092;-77
2021/04/24 10:15:36;;;;;;;11.25;6.55;;;19.00;34.80;;;;;;6232434;28;20163;-78
2021/04/24 10:18:37;;;;;;;9.32;5.85;;;18.80;35.60;;;;;;6238029;28;20061;-79
2021/04/24 10:21:39;;;;;;;12.32;5.40;;;19.20;35.30;;;;;;6231038;28;20081;-78
2021/04/24 10:24:41;;;;;;;12.00;5.55;;;19.80;34.20;;;;;;6233647;28;20046;-78
2021/04/24 10:27:42;;;;;;;8.98;6.10;;;20.10;32.70;;;;;;6225642;28;20072;-78
2021/04/24 10:30:45;;;;;;;11.63;7.15;;;20.00;32.10;;;;;;6229686;28;20082;-78
2021/04/24 10:33:48;;;;;;;11.50;6.53;;;20.10;32.40;;;;;;6228965;28;20070;-78
2021/04/24 10:36:50;;;;;;;10.77;6.65;;;19.90;33.10;;;;;;6229993;28;20046;-78
2021/04/24 10:40:00;;;;;;;12.57;6.75;;;19.90;33.30;;;;;;6228420;28;20042;-78
2021/04/24 10:43:02;;;;;;;10.30;5.35;;;20.00;33.30;;;;;;6237651;28;20061;-78
2021/04/24 10:46:29;;;;;;;9.52;6.28;;;20.40;33.00;;;;;;6240298;28;20041;-78
2021/04/24 10:49:31;;;;;;;12.85;6.20;;;20.70;31.50;;;;;;6238208;28;20049;-78
2021/04/24 10:52:33;;;;;;;6.80;5.57;;;20.50;32.10;;;;;;6235854;28;20049;-78
2021/04/24 10:55:43;;;;;;;9.43;5.82;;;20.60;32.30;;;;;;6228009;28;20085;-78
2021/04/24 10:58:44;;;;;;;16.83;6.13;;;21.10;32.00;;;;;;6227690;28;20089;-78
2021/04/24 11:02:10;;;;;;;11.10;7.22;;;21.50;30.50;;;;;;6230236;28;20049;-78
2021/04/24 11:05:28;;;;;;;10.18;7.10;;;21.50;30.20;;;;;;6227417;28;20053;-77
2021/04/24 11:08:29;;;;;;;12.15;7.50;;;21.00;30.70;;;;;;6225329;28;20045;-78
2021/04/24 11:11:31;;;;;;;14.55;7.35;;;20.80;31.40;;;;;;6225526;28;20061;-77
2021/04/24 11:14:32;;;;;;;10.30;6.35;;;21.10;33.10;;;;;;6228216;28;20046;-77
2021/04/24 11:17:37;;;;;;;8.63;5.40;;;21.50;32.00;;;;;;6231103;28;20069;-79
2021/04/24 11:20:50;;;;;;;9.57;6.32;;;21.80;32.80;;;;;;6254061;28;20034;-79
2021/04/24 11:23:57;;;;;;;8.52;6.28;;;22.20;31.60;;;;;;6253859;28;20037;-79
2021/04/24 11:26:58;;;;;;;13.63;7.18;;;21.90;30.00;;;;;;6254263;28;20102;-79
2021/04/24 11:29:59;;;;;;;8.60;6.15;;;21.70;31.60;;;;;;6252334;28;20033;-79
2021/04/24 11:33:39;;;;;;;8.48;6.03;;;21.90;31.70;;;;;;6249676;28;20046;-78
2021/04/24 11:36:41;;;;;;;13.13;6.97;;;22.20;31.70;;;;;;6250582;28;20061;-78
2021/04/24 11:40:10;;;;;;;11.23;7.00;;;22.40;31.30;;;;;;6245151;28;20081;-78
2021/04/24 11:43:12;;;;;;;11.75;6.22;;;22.60;31.20;;;;;;6235680;28;20080;-77
2021/04/24 11:46:33;;;;;;;11.90;6.57;;;22.80;30.80;;;;;;6226906;28;20048;-79
2021/04/24 11:49:50;;;;;;;8.50;6.07;;;23.20;30.30;;;;;;6232465;28;20157;-78
2021/04/24 11:52:55;;;;;;;8.63;6.00;;;23.50;30.70;;;;;;6239581;28;20393;-80
2021/04/24 11:55:56;;;;;;;8.13;6.35;;;23.40;28.90;;;;;;6237687;28;20046;-78
2021/04/24 11:58:58;;;;;;;9.57;7.53;;;23.10;29.30;;;;;;6234779;28;20503;-78
2021/04/24 12:02:02;;;;;;;8.60;7.40;;;23.30;28.90;;;;;;6240608;28;20069;-78
2021/04/24 12:05:09;;;;;;;9.98;6.10;;;23.60;29.00;;;;;;6240704;28;20050;-80
2021/04/24 12:08:19;;;;;;;20.37;6.40;;;23.90;28.90;;;;;;6241439;28;20049;-79
2021/04/24 12:11:21;;;;;;;9.20;5.80;;;23.90;28.70;;;;;;6242439;28;20054;-79
2021/04/24 12:14:22;;;;;;;13.30;5.68;;;23.80;28.10;;;;;;6241275;28;20542;-79
2021/04/24 12:17:24;;;;;;;9.23;5.70;;;23.70;28.50;;;;;;6242058;28;20065;-79
2021/04/24 12:20:28;;;;;;;11.07;5.88;;;23.80;28.70;;;;;;6242052;28;20046;-80
2021/04/24 12:23:29;;;;;;;10.77;6.72;;;23.50;27.20;;;;;;6243408;28;20046;-79
2021/04/24 12:26:30;;;;;;;12.68;5.57;;;23.20;28.10;;;;;;6243496;28;20057;-79
2021/04/24 12:29:45;;;;;;;10.23;6.05;;;23.40;28.30;;;;;;6242327;28;20049;-78
2021/04/24 12:32:49;;;;;;;9.88;6.15;;;23.60;27.70;;;;;;6241776;28;20078;-78
2021/04/24 12:35:54;;;;;;;11.85;6.40;;;23.50;27.60;;;;;;6243046;28;20061;-78
2021/04/24 12:38:56;;;;;;;12.48;7.55;;;23.50;28.10;;;;;;6241684;28;20050;-79
2021/04/24 12:41:59;;;;;;;13.40;7.57;;;23.50;28.20;;;;;;6236784;28;20048;-79
2021/04/24 12:45:04;;;;;;;10.27;6.90;;;23.50;27.90;;;;;;6239073;28;20046;-79
2021/04/24 12:48:13;;;;;;;16.00;8.27;;;23.60;27.80;;;;;;6238252;28;20065;-78
2021/04/24 12:51:17;;;;;;;10.15;6.35;;;23.60;27.60;;;;;;6234808;28;20105;-79
2021/04/24 12:54:18;;;;;;;10.55;6.95;;;23.80;27.30;;;;;;6237598;28;20045;-78
2021/04/24 12:57:20;;;;;;;10.75;6.75;;;23.90;27.80;;;;;;6224908;28;20070;-79
2021/04/24 13:00:27;;;;;;;10.10;6.05;;;23.70;27.60;;;;;;6227322;28;20527;-79
2021/04/24 13:03:33;;;;;;;8.93;6.78;;;23.70;28.00;;;;;;6237735;28;20060;-79
2021/04/24 13:06:37;;;;;;;12.13;6.47;;;23.70;28.20;;;;;;6242832;28;20067;-78
2021/04/24 13:09:38;;;;;;;11.52;6.80;;;23.60;27.60;;;;;;6238716;28;20110;-78
2021/04/24 13:12:50;;;;;;;9.10;6.53;;;23.30;28.10;;;;;;6234858;28;20116;-78
2021/04/24 13:15:52;;;;;;;12.88;6.43;;;23.40;27.90;;;;;;6231892;28;20105;-79
2021/04/24 13:18:53;;;;;;;10.55;6.25;;;23.70;27.80;;;;;;6232742;28;20058;-78
2021/04/24 13:21:58;;;;;;;12.55;7.30;;;24.10;27.10;;;;;;6233793;28;20133;-77
2021/04/24 13:24:59;;;;;;;9.70;6.00;;;24.20;26.90;;;;;;6234116;28;20554;-78
2021/04/24 13:28:01;;;;;;;8.23;5.38;;;24.30;26.80;;;;;;6233106;28;20125;-77
2021/04/24 13:31:14;;;;;;;10.20;5.97;;;24.50;26.60;;;;;;6229962;28;20049;-77
2021/04/24 13:34:38;;;;;;;7.90;5.68;;;24.60;26.80;;;;;;6227836;28;20046;-78
2021/04/24 13:37:40;;;;;;;7.63;5.65;;;24.70;26.90;;;;;;6229099;28;20052;-77
2021/04/24 13:40:42;;;;;;;12.90;5.90;;;24.80;26.10;;;;;;6231485;28;20634;-78
2021/04/24 13:43:43;;;;;;;7.10;6.18;;;24.80;26.50;;;;;;6227074;28;20494;-77
2021/04/24 13:46:47;;;;;;;11.10;6.05;;;24.70;26.40;;;;;;6224526;28;20129;-77
2021/04/24 13:49:48;;;;;;;9.85;5.40;;;24.50;25.80;;;;;;6224290;28;20128;-79
2021/04/24 13:52:51;;;;;;;8.25;5.90;;;24.30;26.40;;;;;;6226663;28;20129;-77
2021/04/24 13:55:52;;;;;;;7.95;5.88;;;24.30;26.50;;;;;;6224130;28;20129;-77
2021/04/24 13:58:53;;;;;;;8.15;6.00;;;24.20;26.50;;;;;;6219892;28;20188;-78
2021/04/24 14:01:54;;;;;;;12.43;6.13;;;24.10;26.50;;;;;;6199726;28;20081;-78
2021/04/24 14:04:56;;;;;;;9.10;5.57;;;24.00;26.40;;;;;;6200128;28;20113;-78
2021/04/24 14:07:58;;;;;;;6.80;5.05;;;24.10;26.70;;;;;;6200209;28;20156;-78
2021/04/24 14:10:59;;;;;;;8.55;5.15;;;24.20;25.90;;;;;;6199884;28;20408;-78
2021/04/24 14:14:01;;;;;;;9.80;5.35;;;24.30;26.00;;;;;;6212930;28;20077;-78
2021/04/24 14:17:03;;;;;;;9.75;4.90;;;24.20;25.90;;;;;;6224535;28;20058;-78
2021/04/24 14:20:06;;;;;;;6.35;4.85;;;24.30;26.00;;;;;;6224169;28;20037;-78
2021/04/24 14:23:08;;;;;;;8.50;6.20;;;24.30;26.00;;;;;;6224479;28;20041;-79
2021/04/24 14:26:10;;;;;;;11.38;5.65;;;24.00;25.80;;;;;;6224101;28;20103;-78
2021/04/24 14:29:11;;;;;;;9.90;4.95;;;23.80;26.10;;;;;;6223631;28;20050;-78
2021/04/24 14:32:13;;;;;;;5.40;4.65;;;23.70;26.40;;;;;;6224068;28;20100;-78
2021/04/24 14:35:14;;;;;;;9.15;6.05;;;24.00;26.20;;;;;;6223966;28;20088;-78
2021/04/24 14:38:17;;;;;;;8.73;5.10;;;23.90;25.60;;;;;;6224201;28;20078;-78
2021/04/24 14:41:18;;;;;;;6.78;4.72;;;23.90;25.80;;;;;;6224050;28;20125;-77
2021/04/24 14:44:19;;;;;;;7.95;5.38;;;23.90;25.50;;;;;;6227843;28;20065;-79
2021/04/24 14:47:21;;;;;;;11.40;5.65;;;23.80;26.10;;;;;;6228757;28;20054;-79
2021/04/24 14:50:22;;;;;;;8.43;6.00;;;24.00;25.70;;;;;;6227948;28;20141;-79
2021/04/24 14:53:24;;;;;;;10.43;5.20;;;24.20;25.50;;;;;;6228152;28;20583;-78
2021/04/24 14:56:26;;;;;;;7.85;5.70;;;24.40;25.40;;;;;;6234998;28;20476;-79
2021/04/24 14:59:27;;;;;;;7.97;6.65;;;24.70;25.00;;;;;;6244408;28;20049;-79
2021/04/24 15:02:28;;;;;;;11.23;5.25;;;24.50;24.50;;;;;;6243403;28;20268;-79
2021/04/24 15:05:30;;;;;;;8.27;5.78;;;24.10;25.50;;;;;;6245472;28;20050;-79
2021/04/24 15:08:32;;;;;;;5.65;4.97;;;24.20;25.50;;;;;;6247604;28;20073;-79
2021/04/24 15:11:33;;;;;;;10.40;5.28;;;24.30;25.50;;;;;;6233934;28;20046;-79
2021/04/24 15:14:35;;;;;;;15.40;7.30;;;24.50;25.30;;;;;;6231033;28;20092;-79
2021/04/24 15:17:37;;;;;;;11.25;6.40;;;24.50;25.50;;;;;;6228322;28;20543;-79
2021/04/24 15:20:38;;;;;;;10.52;6.90;;;24.30;25.20;;;;;;6227306;28;20496;-79
2021/04/24 15:23:41;;;;;;;9.85;7.22;;;24.20;25.40;;;;;;6229728;28;20053;-79
2021/04/24 15:26:42;;;;;;;6.60;5.63;;;24.00;25.40;;;;;;6233209;28;20096;-80
2021/04/24 15:29:43;;;;;;;10.90;6.72;;;24.10;25.70;;;;;;6231952;28;20109;-79
2021/04/24 15:32:46;;;;;;;14.75;6.20;;;24.10;25.70;;;;;;6232386;28;20129;-80
2021/04/24 15:35:47;;;;;;;47.33;33.75;;;24.00;25.80;;;;;;6232448;28;20060;-79
2021/04/24 15:38:49;;;;;;;7.32;6.00;;;24.00;25.80;;;;;;6232431;28;20046;-79
2021/04/24 15:41:51;;;;;;;9.52;6.18;;;23.80;25.60;;;;;;6232321;28;20559;-79
2021/04/24 15:44:53;;;;;;;7.93;5.55;;;23.70;26.10;;;;;;6232264;28;20550;-80
2021/04/24 15:47:54;;;;;;;12.50;7.45;;;23.40;26.20;;;;;;6232757;28;20066;-79
2021/04/24 15:50:56;;;;;;;10.98;7.88;;;23.20;26.40;;;;;;6232235;28;20097;-79